Time;durP1;ratioP1;P1;durP2;ratioP2;P2;SDS_P1;SDS_P2;PMS_P1;PMS_P2;Temp;Humidity;BMP_temperature;BMP_pressure;BME280_temperature;BME280_humidity;BME280_pressure;Samples;Min_cycle;Max_cycle;Signal;HPM_P1;HPM_P2
2022/08/25 00:00:21;;;;;;;6.65;4.13;;;18.70;99.90;;;;;;5045490;28;20040;-40
2022/08/25 00:02:47;;;;;;;5.05;3.47;;;18.70;99.90;;;;;;5044790;28;20566;-40
2022/08/25 00:05:13;;;;;;;9.82;3.95;;;18.70;99.90;;;;;;5045145;28;20052;-41
2022/08/25 00:07:38;;;;;;;8.52;3.85;;;18.60;99.90;;;;;;5045129;28;20117;-40
2022/08/25 00:10:05;;;;;;;9.23;4.15;;;18.90;99.90;;;;;;5045313;28;20068;-41
2022/08/25 00:12:31;;;;;;;6.47;4.20;;;18.50;99.90;;;;;;5045342;28;20037;-41
2022/08/25 00:14:57;;;;;;;5.30;4.22;;;18.40;99.90;;;;;;5044718;28;20510;-40
2022/08/25 00:17:23;;;;;;;7.05;3.80;;;18.30;99.90;;;;;;5045353;28;20118;-41
2022/08/25 00:19:49;;;;;;;5.57;4.18;;;18.30;99.90;;;;;;5045359;28;20072;-40
2022/08/25 00:22:14;;;;;;;5.93;4.00;;;18.30;99.90;;;;;;5045152;28;20036;-41
2022/08/25 00:24:40;;;;;;;6.30;4.00;;;18.20;99.90;;;;;;5044808;28;20501;-40
2022/08/25 00:27:06;;;;;;;4.38;3.65;;;18.20;99.90;;;;;;5044876;28;20041;-40
2022/08/25 00:29:32;;;;;;;9.75;4.55;;;18.20;99.90;;;;;;5044809;28;20510;-42
2022/08/25 00:31:59;;;;;;;5.97;3.90;;;18.30;99.90;;;;;;5044852;28;20059;-40
2022/08/25 00:34:29;;;;;;;8.45;4.00;;;18.30;99.90;;;;;;5045112;28;20553;-41
2022/08/25 00:36:54;;;;;;;7.90;4.78;;;18.20;99.90;;;;;;5044704;28;20471;-40
2022/08/25 00:39:22;;;;;;;6.38;4.63;;;18.20;99.90;;;;;;5044590;28;20048;-40
2022/08/25 00:41:50;;;;;;;5.63;4.43;;;18.10;99.90;;;;;;5044756;28;20471;-40
2022/08/25 00:44:17;;;;;;;5.97;3.72;;;18.00;99.90;;;;;;5044528;28;20041;-40
2022/08/25 00:46:49;;;;;;;6.15;4.07;;;18.10;99.90;;;;;;5045123;28;20079;-40
2022/08/25 00:49:19;;;;;;;11.75;4.95;;;18.00;99.90;;;;;;5044684;28;20068;-40
2022/08/25 00:51:50;;;;;;;11.02;4.35;;;18.00;99.90;;;;;;5044464;28;20116;-40
2022/08/25 00:54:24;;;;;;;7.68;4.35;;;17.90;99.90;;;;;;5044605;28;20772;-41
2022/08/25 00:56:50;;;;;;;7.70;4.97;;;17.80;99.90;;;;;;5044495;28;20033;-40
2022/08/25 00:59:20;;;;;;;5.15;4.65;;;17.80;99.90;;;;;;5044645;28;20088;-41
2022/08/25 01:01:47;;;;;;;9.93;4.15;;;17.80;99.90;;;;;;5044639;28;20041;-40
2022/08/25 01:04:12;;;;;;;4.15;3.67;;;17.80;99.90;;;;;;5044794;28;20094;-40
2022/08/25 01:06:41;;;;;;;7.40;4.65;;;17.80;99.90;;;;;;5044696;28;20049;-40
2022/08/25 01:09:07;;;;;;;8.18;4.72;;;17.80;99.90;;;;;;5044487;28;20072;-40
2022/08/25 01:11:34;;;;;;;9.35;4.18;;;17.80;99.90;;;;;;5048070;28;20060;-40
2022/08/25 01:14:05;;;;;;;6.05;4.05;;;17.80;99.90;;;;;;5045969;28;20323;-40
2022/08/25 01:16:33;;;;;;;5.78;4.35;;;17.70;99.90;;;;;;5048495;28;20382;-40
2022/08/25 01:18:59;;;;;;;5.75;3.92;;;17.70;99.90;;;;;;5045984;28;20045;-40
2022/08/25 01:21:27;;;;;;;5.03;4.53;;;17.70;99.90;;;;;;5048270;28;20406;-40
2022/08/25 01:23:57;;;;;;;5.18;3.88;;;17.70;99.90;;;;;;5048060;28;20135;-40
2022/08/25 01:26:26;;;;;;;6.65;4.40;;;17.70;99.90;;;;;;5047679;28;20495;-40
2022/08/25 01:31:38;;;;;;;6.60;4.68;;;17.70;99.90;;;;;;5047263;28;20106;-40
2022/08/25 01:34:06;;;;;;;5.38;3.92;;;17.60;99.90;;;;;;5047263;28;20152;-40
2022/08/25 01:36:33;;;;;;;9.35;4.03;;;17.60;99.90;;;;;;5047594;28;20049;-41
2022/08/25 01:38:59;;;;;;;7.88;4.00;;;17.60;99.90;;;;;;5047561;28;20128;-41
2022/08/25 01:41:33;;;;;;;6.88;4.18;;;17.60;99.90;;;;;;5047620;28;20152;-40
2022/08/25 01:44:00;;;;;;;8.45;4.05;;;17.50;99.90;;;;;;5047172;28;20053;-40
2022/08/25 01:46:26;;;;;;;5.93;4.32;;;17.40;99.90;;;;;;5047306;28;20507;-41
2022/08/25 01:48:52;;;;;;;7.05;4.15;;;17.40;99.90;;;;;;5047097;28;20047;-40
2022/08/25 01:51:22;;;;;;;7.93;5.30;;;17.30;99.90;;;;;;5047233;28;20708;-40
2022/08/25 01:53:49;;;;;;;6.10;3.95;;;17.30;99.90;;;;;;5047014;28;20361;-40
2022/08/25 01:56:16;;;;;;;6.68;4.25;;;17.20;99.90;;;;;;5046958;28;20113;-41
2022/08/25 01:58:45;;;;;;;7.25;3.95;;;17.20;99.90;;;;;;5047396;28;20068;-40
2022/08/25 02:01:20;;;;;;;6.18;4.05;;;17.10;99.90;;;;;;5047005;28;20059;-40
2022/08/25 02:03:49;;;;;;;10.07;3.15;;;17.10;99.90;;;;;;5047187;28;20037;-40
2022/08/25 02:06:20;;;;;;;8.07;3.42;;;17.40;99.90;;;;;;5047273;28;20411;-40
2022/08/25 02:08:51;;;;;;;10.27;4.13;;;17.00;99.90;;;;;;5046755;28;20064;-41
2022/08/25 02:11:17;;;;;;;7.20;3.83;;;17.00;99.90;;;;;;5047001;28;20064;-40
2022/08/25 02:13:42;;;;;;;3.80;3.38;;;17.30;99.90;;;;;;5046782;28;20049;-40
2022/08/25 02:16:13;;;;;;;6.70;3.35;;;16.90;99.90;;;;;;5046855;28;20052;-40
2022/08/25 02:18:39;;;;;;;5.77;3.63;;;16.90;99.90;;;;;;5047799;28;20454;-41
2022/08/25 02:21:05;;;;;;;4.47;3.83;;;16.90;99.90;;;;;;5045581;28;20120;-40
2022/08/25 02:23:31;;;;;;;5.57;3.65;;;16.90;99.90;;;;;;5047152;28;20044;-40
2022/08/25 02:25:57;;;;;;;6.07;3.42;;;16.90;99.90;;;;;;5046410;28;20048;-39
2022/08/25 02:28:23;;;;;;;8.55;3.53;;;16.80;99.90;;;;;;5046713;28;20444;-40
2022/08/25 02:30:51;;;;;;;4.55;3.75;;;16.80;99.90;;;;;;5046640;28;20498;-40
2022/08/25 02:33:17;;;;;;;7.07;3.67;;;16.80;99.90;;;;;;5046952;28;20053;-40
2022/08/25 02:35:42;;;;;;;3.90;3.35;;;16.70;99.90;;;;;;5046775;28;20055;-40
2022/08/25 02:38:08;;;;;;;8.13;3.92;;;16.80;99.90;;;;;;5046553;28;20474;-40
2022/08/25 02:40:34;;;;;;;6.43;4.53;;;16.80;99.90;;;;;;5046140;28;20041;-40
2022/08/25 02:42:59;;;;;;;7.88;4.60;;;16.70;99.90;;;;;;5045861;28;20041;-40
2022/08/25 02:45:25;;;;;;;5.68;3.83;;;16.70;99.90;;;;;;5046168;28;20083;-41
2022/08/25 02:47:51;;;;;;;5.70;4.57;;;16.70;99.90;;;;;;5046109;28;20092;-40
2022/08/25 02:50:17;;;;;;;5.75;3.67;;;16.70;99.90;;;;;;5046228;28;20037;-40
2022/08/25 02:52:43;;;;;;;6.32;3.40;;;16.70;99.90;;;;;;5045988;28;20498;-40
2022/08/25 02:55:12;;;;;;;7.72;3.58;;;16.70;99.90;;;;;;5045761;28;20047;-40
2022/08/25 02:57:40;;;;;;;4.72;3.05;;;16.60;99.90;;;;;;5046194;28;20850;-40
2022/08/25 03:00:08;;;;;;;4.70;2.80;;;16.70;99.90;;;;;;5045914;28;20049;-40
2022/08/25 03:02:34;;;;;;;5.00;3.55;;;16.70;99.90;;;;;;5046188;28;20048;-40
2022/08/25 03:05:00;;;;;;;6.10;3.78;;;17.00;99.90;;;;;;5046116;28;20051;-40
2022/08/25 03:07:25;;;;;;;4.90;3.10;;;16.80;99.90;;;;;;5046293;28;20080;-40
2022/08/25 03:09:51;;;;;;;6.72;3.15;;;16.80;99.90;;;;;;5045951;28;20068;-41
2022/08/25 03:12:17;;;;;;;7.72;3.17;;;16.80;99.90;;;;;;5046710;28;20055;-40
2022/08/25 03:14:43;;;;;;;6.85;2.97;;;16.90;99.90;;;;;;5045960;28;20041;-40
2022/08/25 03:17:08;;;;;;;10.40;3.55;;;16.90;99.90;;;;;;5045469;28;20040;-40
2022/08/25 03:19:34;;;;;;;4.50;3.42;;;16.90;99.90;;;;;;5046135;28;20079;-40
2022/08/25 03:22:00;;;;;;;5.53;3.45;;;16.90;99.90;;;;;;5045903;28;20044;-40
2022/08/25 03:24:26;;;;;;;7.70;3.63;;;16.80;99.90;;;;;;5046200;28;20514;-40
2022/08/25 03:26:53;;;;;;;4.78;3.92;;;17.00;99.90;;;;;;5046008;28;20437;-40
2022/08/25 03:29:23;;;;;;;6.47;3.90;;;16.80;99.90;;;;;;5045591;28;20041;-39
2022/08/25 03:31:50;;;;;;;4.10;3.17;;;16.80;99.90;;;;;;5046007;28;20041;-40
2022/08/25 03:34:18;;;;;;;3.97;3.17;;;16.80;99.90;;;;;;5045635;28;20136;-40
2022/08/25 03:36:45;;;;;;;6.53;3.53;;;16.70;99.90;;;;;;5045609;28;20133;-40
2022/08/25 03:39:12;;;;;;;6.68;3.40;;;16.70;99.90;;;;;;5044944;28;20041;-41
2022/08/25 03:41:38;;;;;;;5.63;3.42;;;16.70;99.90;;;;;;5045162;28;20395;-40
2022/08/25 03:44:06;;;;;;;7.07;3.83;;;16.60;99.90;;;;;;5045255;28;20052;-40
2022/08/25 03:46:38;;;;;;;6.90;3.97;;;16.60;99.90;;;;;;5045241;28;20170;-40
2022/08/25 03:49:06;;;;;;;7.18;4.05;;;16.50;99.90;;;;;;5045266;28;20041;-40
2022/08/25 03:51:47;;;;;;;6.10;3.55;;;16.30;99.90;;;;;;5045390;28;20115;-40
2022/08/25 03:54:19;;;;;;;7.10;3.70;;;16.40;99.90;;;;;;5045165;28;20442;-40
2022/08/25 03:56:45;;;;;;;5.97;4.20;;;16.30;99.90;;;;;;5045221;28;20044;-40
2022/08/25 03:59:11;;;;;;;7.70;4.18;;;16.30;99.90;;;;;;5045267;28;20395;-40
2022/08/25 04:01:39;;;;;;;7.68;4.57;;;16.20;99.90;;;;;;5045289;28;20471;-40
2022/08/25 04:04:06;;;;;;;7.07;3.97;;;16.10;99.90;;;;;;5044720;28;20037;-40
2022/08/25 04:06:33;;;;;;;6.35;4.15;;;16.10;99.90;;;;;;5045369;28;20045;-40
2022/08/25 04:08:58;;;;;;;7.55;4.22;;;16.00;99.90;;;;;;5044789;28;20510;-39
2022/08/25 04:11:26;;;;;;;7.60;3.90;;;16.00;99.90;;;;;;5044861;28;20057;-41
2022/08/25 04:13:56;;;;;;;5.22;3.47;;;15.90;99.90;;;;;;5045364;28;20332;-40
2022/08/25 04:16:24;;;;;;;8.50;4.05;;;15.90;99.90;;;;;;5044748;28;20080;-39
2022/08/25 04:18:52;;;;;;;8.45;3.97;;;15.90;99.90;;;;;;5045325;28;20056;-40
2022/08/25 04:21:19;;;;;;;6.97;4.55;;;15.90;99.90;;;;;;5044501;28;20049;-39
2022/08/25 04:23:47;;;;;;;6.63;4.18;;;15.90;99.90;;;;;;5044679;28;20115;-40
2022/08/25 04:26:26;;;;;;;11.60;4.63;;;15.80;99.90;;;;;;5044891;28;20033;-40
2022/08/25 04:28:52;;;;;;;6.57;4.35;;;15.80;99.90;;;;;;5044858;28;20053;-40
2022/08/25 04:31:20;;;;;;;6.65;4.35;;;15.80;99.90;;;;;;5044670;28;20134;-40
2022/08/25 04:33:47;;;;;;;7.30;4.55;;;15.80;99.90;;;;;;5044475;28;20487;-39
2022/08/25 04:36:14;;;;;;;14.00;4.03;;;16.20;99.90;;;;;;5044478;28;20499;-39
2022/08/25 04:38:41;;;;;;;9.07;4.30;;;15.80;99.90;;;;;;5044723;28;20433;-40
2022/08/25 04:41:09;;;;;;;6.45;3.97;;;15.70;99.90;;;;;;5044654;28;20146;-40
2022/08/25 04:43:36;;;;;;;8.18;4.43;;;15.70;99.90;;;;;;5044457;28;20103;-40
2022/08/25 04:46:30;;;;;;;7.07;5.13;;;16.00;99.90;;;;;;5047988;28;20819;-40
2022/08/25 04:48:58;;;;;;;7.90;5.22;;;15.80;99.90;;;;;;5048484;28;20053;-39
2022/08/25 04:51:35;;;;;;;10.95;5.00;;;15.90;99.90;;;;;;5048756;28;20068;-39
2022/08/25 04:54:04;;;;;;;4.90;4.20;;;15.90;99.90;;;;;;5048901;28;20075;-39
2022/08/25 04:56:32;;;;;;;8.60;5.50;;;15.90;99.90;;;;;;5049078;28;20073;-40
2022/08/25 04:59:04;;;;;;;9.05;5.10;;;15.90;99.90;;;;;;5048749;28;20391;-39
2022/08/25 05:01:30;;;;;;;10.77;4.55;;;16.00;99.90;;;;;;5048839;28;20459;-39
2022/08/25 05:03:58;;;;;;;7.82;4.43;;;16.10;99.90;;;;;;5048671;28;20083;-40
2022/08/25 05:06:25;;;;;;;6.78;4.38;;;16.10;99.90;;;;;;5048537;28;20132;-40
2022/08/25 05:08:51;;;;;;;7.38;3.92;;;16.20;99.90;;;;;;5048423;28;20061;-40
2022/08/25 05:11:18;;;;;;;12.95;5.20;;;16.20;99.90;;;;;;5048203;28;20364;-40
2022/08/25 05:13:48;;;;;;;5.18;3.95;;;16.40;99.90;;;;;;5047701;28;20494;-40
2022/08/25 05:16:15;;;;;;;9.73;4.68;;;16.50;99.90;;;;;;5047795;28;20036;-39
2022/08/25 05:18:41;;;;;;;7.00;4.30;;;16.60;99.90;;;;;;5048210;28;20041;-40
2022/08/25 05:21:27;;;;;;;5.07;4.47;;;16.80;99.90;;;;;;5048069;28;20037;-40
2022/08/25 05:23:58;;;;;;;7.45;4.35;;;17.00;99.90;;;;;;5047734;28;20092;-40
2022/08/25 05:26:25;;;;;;;13.27;4.93;;;17.10;99.90;;;;;;5047931;28;20114;-39
2022/08/25 05:28:53;;;;;;;8.15;4.10;;;17.30;99.90;;;;;;5048075;28;20051;-40
2022/08/25 05:31:20;;;;;;;6.28;4.53;;;17.60;99.90;;;;;;5046118;28;20041;-40
2022/08/25 05:33:45;;;;;;;7.47;4.68;;;17.90;99.90;;;;;;5047425;28;20044;-40
2022/08/25 05:36:12;;;;;;;4.93;3.80;;;18.00;99.90;;;;;;5047745;28;20045;-40
2022/08/25 05:38:39;;;;;;;4.57;3.45;;;18.10;99.90;;;;;;5048266;28;20049;-40
2022/08/25 05:41:09;;;;;;;7.95;4.22;;;18.20;99.90;;;;;;5047602;28;20044;-40
2022/08/25 05:43:39;;;;;;;7.55;4.15;;;18.70;99.90;;;;;;5047435;28;20055;-40
2022/08/25 05:46:06;;;;;;;7.30;4.18;;;18.90;99.90;;;;;;5047491;28;20040;-40
2022/08/25 05:48:32;;;;;;;7.82;4.20;;;18.80;99.90;;;;;;5047855;28;20041;-40
2022/08/25 05:51:01;;;;;;;10.80;4.47;;;18.90;99.90;;;;;;5047669;28;20043;-40
2022/08/25 05:53:28;;;;;;;6.43;3.85;;;19.00;99.90;;;;;;5047952;28;20049;-40
2022/08/25 05:55:56;;;;;;;7.75;5.32;;;19.20;99.90;;;;;;5047130;28;20470;-40
2022/08/25 05:58:23;;;;;;;7.35;4.80;;;19.30;99.90;;;;;;5047199;28;20080;-40
2022/08/25 06:00:50;;;;;;;7.82;4.20;;;19.40;99.90;;;;;;5047372;28;20052;-40
2022/08/25 06:03:16;;;;;;;11.20;4.32;;;19.60;99.90;;;;;;5047423;28;20052;-41
2022/08/25 06:05:42;;;;;;;7.70;4.30;;;19.80;99.90;;;;;;5047313;28;20044;-40
2022/08/25 06:08:08;;;;;;;10.38;4.13;;;20.60;99.90;;;;;;5047159;28;20505;-41
2022/08/25 06:10:34;;;;;;;8.65;4.05;;;22.10;98.10;;;;;;5046726;28;20072;-41
2022/08/25 06:13:00;;;;;;;10.25;4.15;;;22.70;96.20;;;;;;5047129;28;20075;-40
2022/08/25 06:15:26;;;;;;;12.98;5.00;;;23.40;94.90;;;;;;5046774;28;20475;-41
2022/08/25 06:17:52;;;;;;;8.13;3.65;;;24.20;92.40;;;;;;5046736;28;20538;-40
2022/08/25 06:20:20;;;;;;;6.18;3.80;;;24.30;91.40;;;;;;5046781;28;20072;-40
2022/08/25 06:22:47;;;;;;;7.22;4.28;;;24.10;91.00;;;;;;5046754;28;20045;-40
2022/08/25 06:25:15;;;;;;;6.03;3.83;;;24.20;90.70;;;;;;5045534;28;20111;-40
2022/08/25 06:27:40;;;;;;;6.28;4.47;;;23.50;90.90;;;;;;5046281;28;20066;-40
2022/08/25 06:30:09;;;;;;;9.85;3.90;;;23.10;91.50;;;;;;5045962;28;20335;-42
2022/08/25 06:32:38;;;;;;;6.70;3.78;;;22.90;91.90;;;;;;5045271;28;20045;-41
2022/08/25 06:35:05;;;;;;;6.20;3.90;;;22.80;92.10;;;;;;5046552;28;20132;-41
2022/08/25 06:37:31;;;;;;;6.60;3.45;;;22.70;92.30;;;;;;5046035;28;20135;-42
2022/08/25 06:39:57;;;;;;;8.68;4.15;;;23.00;92.40;;;;;;5046604;28;20680;-41
2022/08/25 06:42:22;;;;;;;6.70;3.83;;;23.00;92.40;;;;;;5046471;28;20041;-40
2022/08/25 06:44:48;;;;;;;6.72;3.70;;;23.10;92.40;;;;;;5046536;28;20084;-42
2022/08/25 06:47:14;;;;;;;8.30;4.82;;;23.80;91.40;;;;;;5046367;28;20051;-41
2022/08/25 06:49:44;;;;;;;4.63;3.35;;;23.60;91.40;;;;;;5046369;28;20033;-41
2022/08/25 06:52:10;;;;;;;6.28;3.65;;;23.50;91.30;;;;;;5046131;28;20505;-42
2022/08/25 06:54:36;;;;;;;5.75;4.13;;;23.50;91.90;;;;;;5045353;28;20045;-42
2022/08/25 06:57:02;;;;;;;6.03;3.72;;;23.50;91.70;;;;;;5045745;28;20037;-41
2022/08/25 06:59:28;;;;;;;5.90;4.13;;;23.60;91.50;;;;;;5046043;28;20264;-40
2022/08/25 07:01:54;;;;;;;8.15;3.80;;;23.70;91.30;;;;;;5045679;28;20090;-41
2022/08/25 07:04:20;;;;;;;6.78;3.83;;;24.30;90.50;;;;;;5045484;28;20044;-40
2022/08/25 07:06:46;;;;;;;7.50;4.10;;;24.50;89.60;;;;;;5044872;28;20092;-41
2022/08/25 07:09:12;;;;;;;10.25;3.70;;;24.20;89.90;;;;;;5045401;28;20072;-41
2022/08/25 07:11:41;;;;;;;9.40;3.90;;;24.20;89.90;;;;;;5045299;28;20154;-41
2022/08/25 07:14:09;;;;;;;5.28;3.50;;;24.10;89.90;;;;;;5045441;28;20071;-41
2022/08/25 07:16:36;;;;;;;9.48;3.75;;;23.90;90.00;;;;;;5045147;28;20565;-43
2022/08/25 07:19:03;;;;;;;6.53;3.08;;;23.90;90.30;;;;;;5045643;28;20128;-40
2022/08/25 07:21:31;;;;;;;6.18;3.78;;;23.80;90.20;;;;;;5045373;28;20055;-42
2022/08/25 07:23:58;;;;;;;7.22;3.95;;;23.80;90.10;;;;;;5045277;28;20124;-42
2022/08/25 07:26:28;;;;;;;7.30;4.50;;;23.80;90.10;;;;;;5045320;28;20045;-41
2022/08/25 07:28:55;;;;;;;6.82;3.78;;;23.90;90.20;;;;;;5045251;28;20677;-41
2022/08/25 07:31:21;;;;;;;6.63;3.40;;;23.80;90.00;;;;;;5045411;28;20117;-40
2022/08/25 07:36:32;;;;;;;7.07;3.72;;;23.80;90.30;;;;;;5045478;28;20505;-41
2022/08/25 07:38:58;;;;;;;6.40;3.42;;;23.80;90.50;;;;;;5045122;28;20648;-43
2022/08/25 07:41:25;;;;;;;8.85;3.90;;;23.70;90.40;;;;;;5045748;28;20040;-41
2022/08/25 07:43:51;;;;;;;6.30;3.60;;;23.70;90.60;;;;;;5045313;28;20048;-43
2022/08/25 07:46:17;;;;;;;6.90;3.50;;;23.70;90.90;;;;;;5045549;28;20106;-42
2022/08/25 07:48:43;;;;;;;12.35;3.83;;;23.80;91.00;;;;;;5045062;28;20802;-42
2022/08/25 07:51:12;;;;;;;10.65;3.83;;;24.00;90.80;;;;;;5045145;28;20045;-40
2022/08/25 07:53:39;;;;;;;8.40;3.50;;;24.10;90.70;;;;;;5045093;28;20059;-42
2022/08/25 07:56:13;;;;;;;7.93;3.67;;;24.20;90.20;;;;;;5044689;28;20120;-41
2022/08/25 07:58:40;;;;;;;6.45;3.50;;;24.40;90.00;;;;;;5044491;28;20044;-41
2022/08/25 08:01:06;;;;;;;9.88;3.28;;;24.40;89.50;;;;;;5045430;28;20040;-40
2022/08/25 08:03:35;;;;;;;6.32;3.80;;;24.50;88.60;;;;;;5045066;28;20104;-41
2022/08/25 08:06:06;;;;;;;6.70;3.55;;;24.50;88.10;;;;;;5044820;28;20059;-41
2022/08/25 08:08:32;;;;;;;11.48;3.50;;;24.70;88.70;;;;;;5044390;28;20045;-40
2022/08/25 08:10:58;;;;;;;5.40;3.35;;;24.80;88.70;;;;;;5044713;28;20097;-40
2022/08/25 08:13:25;;;;;;;11.73;3.60;;;25.00;88.50;;;;;;5044801;28;20482;-40
2022/08/25 08:15:52;;;;;;;5.35;3.05;;;25.30;87.40;;;;;;5045023;28;20508;-40
2022/08/25 08:18:18;;;;;;;5.00;3.15;;;25.60;87.10;;;;;;5044938;28;20049;-40
2022/08/25 08:20:47;;;;;;;5.40;2.72;;;26.10;86.50;;;;;;5047773;28;20048;-40
2022/08/25 08:23:15;;;;;;;7.18;3.10;;;27.50;83.90;;;;;;5049264;28;20045;-39
2022/08/25 08:25:41;;;;;;;6.30;3.00;;;29.80;78.10;;;;;;5049155;28;20044;-40
2022/08/25 08:28:07;;;;;;;4.78;2.80;;;31.70;71.60;;;;;;5049051;28;20412;-41
2022/08/25 08:30:32;;;;;;;7.07;3.22;;;33.00;66.80;;;;;;5048809;28;20037;-41
2022/08/25 08:32:58;;;;;;;4.95;2.67;;;34.10;63.20;;;;;;5048989;28;20053;-42
2022/08/25 08:35:24;;;;;;;4.38;2.65;;;35.00;61.40;;;;;;5048969;28;20077;-40
2022/08/25 08:37:50;;;;;;;7.75;3.20;;;35.80;59.00;;;;;;5049215;28;20103;-40
2022/08/25 08:40:18;;;;;;;5.47;2.47;;;36.30;56.90;;;;;;5049270;28;20041;-41
2022/08/25 08:43:05;;;;;;;7.07;2.55;;;36.90;56.00;;;;;;5049008;28;20045;-41
2022/08/25 08:45:42;;;;;;;7.15;2.25;;;37.30;55.40;;;;;;5048754;28;20095;-41
2022/08/25 08:48:45;;;;;;;7.20;2.58;;;37.20;54.50;;;;;;5048785;28;20049;-40
2022/08/25 08:51:14;;;;;;;5.65;2.05;;;37.50;54.60;;;;;;5049265;28;20045;-42
2022/08/25 08:53:47;;;;;;;5.25;2.05;;;38.00;53.70;;;;;;5048409;28;20384;-41
2022/08/25 08:56:21;;;;;;;3.65;2.17;;;38.60;52.30;;;;;;5048087;28;20047;-41
2022/08/25 08:58:50;;;;;;;6.10;2.25;;;39.00;51.70;;;;;;5048076;28;20483;-43
2022/08/25 09:01:37;;;;;;;8.52;2.60;;;39.40;50.50;;;;;;5047873;28;20529;-42
2022/08/25 09:04:21;;;;;;;6.82;2.03;;;39.80;50.10;;;;;;5048390;28;20441;-41
2022/08/25 09:06:48;;;;;;;7.35;1.95;;;40.00;50.00;;;;;;5048664;28;20052;-42
2022/08/25 09:09:32;;;;;;;3.60;1.90;;;40.40;48.60;;;;;;5047987;28;20103;-41
2022/08/25 09:12:14;;;;;;;2.70;1.58;;;40.60;49.30;;;;;;5048458;28;20077;-43
2022/08/25 09:14:58;;;;;;;5.03;1.60;;;40.70;48.80;;;;;;5047704;28;20128;-43
2022/08/25 09:17:41;;;;;;;3.67;1.60;;;41.10;48.20;;;;;;5048296;28;20407;-43
2022/08/25 09:20:25;;;;;;;4.78;1.65;;;41.40;47.70;;;;;;5047836;28;20041;-41
2022/08/25 09:23:13;;;;;;;5.18;1.48;;;41.60;46.40;;;;;;5047838;28;20518;-41
2022/08/25 09:26:01;;;;;;;3.85;1.58;;;41.80;46.80;;;;;;5048053;28;20056;-41
2022/08/25 09:28:35;;;;;;;6.05;1.88;;;41.80;45.90;;;;;;5048076;28;20049;-41
2022/08/25 09:31:15;;;;;;;5.25;1.13;;;42.00;44.70;;;;;;5047056;28;20127;-41
2022/08/25 09:33:41;;;;;;;8.63;1.33;;;42.30;44.90;;;;;;5047457;28;20060;-43
2022/08/25 09:36:07;;;;;;;4.20;1.30;;;42.30;45.20;;;;;;5047550;28;20040;-41
2022/08/25 09:38:33;;;;;;;5.03;2.03;;;42.20;44.30;;;;;;5047250;28;20044;-43
2022/08/25 09:41:00;;;;;;;6.65;1.35;;;41.50;44.50;;;;;;5047560;28;20041;-41
2022/08/25 09:43:40;;;;;;;3.78;1.35;;;41.00;44.90;;;;;;5047589;28;20048;-43
2022/08/25 09:46:26;;;;;;;5.20;1.40;;;40.20;45.50;;;;;;5046206;28;20037;-41
2022/08/25 09:48:58;;;;;;;3.72;1.30;;;39.90;45.70;;;;;;5047305;28;20072;-41
2022/08/25 09:51:31;;;;;;;3.20;1.17;;;39.80;45.90;;;;;;5047468;28;20041;-41
2022/08/25 09:54:01;;;;;;;2.75;0.95;;;39.20;44.10;;;;;;5046846;28;20141;-42
2022/08/25 09:56:30;;;;;;;4.88;1.30;;;39.10;44.90;;;;;;5047962;28;20044;-42
2022/08/25 09:59:23;;;;;;;3.63;1.20;;;38.80;44.60;;;;;;5046957;28;20044;-41
2022/08/25 10:01:55;;;;;;;3.60;1.15;;;38.60;46.00;;;;;;5046984;28;20049;-42
2022/08/25 10:04:33;;;;;;;6.30;1.05;;;38.70;45.80;;;;;;5047287;28;20170;-41
2022/08/25 10:07:01;;;;;;;3.67;0.90;;;39.00;45.90;;;;;;5046990;28;20057;-43
2022/08/25 10:09:38;;;;;;;2.33;1.13;;;39.50;45.20;;;;;;5047218;28;20060;-42
2022/08/25 10:12:19;;;;;;;5.47;1.40;;;40.00;44.60;;;;;;5047242;28;20436;-42
2022/08/25 10:14:46;;;;;;;4.45;1.23;;;40.00;43.90;;;;;;5046712;28;20547;-42
2022/08/25 10:17:23;;;;;;;7.80;2.10;;;39.90;44.80;;;;;;5047358;28;20044;-41
2022/08/25 10:19:53;;;;;;;4.88;1.00;;;39.80;44.10;;;;;;5031395;28;20076;-41
2022/08/25 10:22:31;;;;;;;5.38;1.45;;;39.20;43.90;;;;;;5046142;28;20540;-42
2022/08/25 10:25:00;;;;;;;3.45;1.15;;;38.40;44.00;;;;;;5044254;28;20045;-40
2022/08/25 10:27:46;;;;;;;4.40;1.38;;;37.40;44.50;;;;;;5044663;28;20098;-42
2022/08/25 10:30:46;;;;;;;2.92;1.20;;;36.60;45.40;;;;;;5044439;28;20044;-41
2022/08/25 10:33:36;;;;;;;4.60;1.57;;;36.10;45.70;;;;;;5044062;28;20068;-41
2022/08/25 10:36:08;;;;;;;3.97;1.17;;;36.00;47.40;;;;;;5044064;28;20804;-42
2022/08/25 10:38:48;;;;;;;4.82;1.67;;;35.80;47.40;;;;;;5043780;28;20529;-41
2022/08/25 10:41:39;;;;;;;2.97;1.40;;;35.80;47.70;;;;;;5044332;28;20102;-43
2022/08/25 10:47:55;;;;;;;7.75;1.30;;;35.40;47.60;;;;;;5043715;28;20110;-41
2022/08/25 10:50:38;;;;;;;4.68;1.00;;;34.80;47.90;;;;;;5044128;28;20753;-41
2022/08/25 10:53:10;;;;;;;4.53;1.20;;;34.10;49.90;;;;;;5046570;28;20048;-41
2022/08/25 10:55:51;;;;;;;3.95;0.98;;;33.50;49.40;;;;;;5046155;28;20041;-41
2022/08/25 10:58:22;;;;;;;;;;;33.00;50.10;;;;;;5046707;28;20049;-40
2022/08/25 11:00:54;;;;;;;;;;;32.50;51.70;;;;;;5046856;28;20374;-43
2022/08/25 11:03:39;;;;;;;3.03;1.25;;;32.10;50.70;;;;;;5046191;28;19921;-42
2022/08/25 11:06:11;;;;;;;3.85;1.40;;;31.80;49.90;;;;;;5046378;28;20115;-41
2022/08/25 11:08:46;;;;;;;3.15;1.40;;;31.70;51.20;;;;;;5046374;28;20048;-42
2022/08/25 11:11:36;;;;;;;7.88;1.65;;;31.50;52.00;;;;;;5045893;28;20064;-41
2022/08/25 11:14:09;;;;;;;6.28;1.50;;;31.30;51.60;;;;;;5046091;28;20245;-40
2022/08/25 11:16:47;;;;;;;6.75;1.88;;;31.20;52.10;;;;;;5045897;28;20483;-41
2022/08/25 11:19:25;;;;;;;4.82;1.10;;;31.10;53.20;;;;;;5045640;28;20495;-41
2022/08/25 11:22:02;;;;;;;4.55;1.25;;;31.00;53.00;;;;;;5045469;28;20040;-41
2022/08/25 11:24:47;;;;;;;2.75;1.40;;;30.90;53.10;;;;;;5045639;28;20091;-41
2022/08/25 11:27:19;;;;;;;3.28;1.10;;;30.80;53.80;;;;;;5045461;28;20550;-42
2022/08/25 11:30:12;;;;;;;3.45;1.23;;;30.70;53.50;;;;;;5045937;28;20041;-41
2022/08/25 11:32:40;;;;;;;2.15;0.85;;;30.60;53.20;;;;;;5044135;28;20060;-41
2022/08/25 11:35:11;;;;;;;4.03;1.10;;;30.50;52.40;;;;;;5045511;28;20041;-42
2022/08/25 11:38:14;;;;;;;1.90;1.08;;;30.40;53.30;;;;;;5046151;28;20353;-41
2022/08/25 11:41:08;;;;;;;4.47;1.15;;;30.40;53.20;;;;;;5023126;28;20131;-41
2022/08/25 11:44:14;;;;;;;4.55;1.15;;;30.40;52.70;;;;;;5045392;28;20052;-41
2022/08/25 11:47:04;;;;;;;4.22;1.45;;;30.30;53.70;;;;;;5036762;28;20052;-41
2022/08/25 11:49:44;;;;;;;3.28;1.20;;;30.30;54.20;;;;;;5045552;28;20102;-43
2022/08/25 11:52:32;;;;;;;3.92;1.23;;;30.30;52.20;;;;;;5045658;28;20467;-41
2022/08/25 11:55:12;;;;;;;5.43;1.30;;;30.20;51.90;;;;;;5044816;28;20458;-42
2022/08/25 11:57:39;;;;;;;4.78;0.95;;;30.20;52.20;;;;;;5046072;28;20052;-42
2022/08/25 12:00:11;;;;;;;4.63;1.35;;;30.20;53.60;;;;;;5044688;28;20044;-41
2022/08/25 12:02:49;;;;;;;2.35;1.13;;;30.20;53.40;;;;;;5045413;28;20037;-41
2022/08/25 12:05:23;;;;;;;4.82;1.23;;;30.20;52.20;;;;;;5045223;28;20119;-41
2022/08/25 12:10:50;;;;;;;2.75;1.40;;;30.20;54.00;;;;;;5044315;28;20057;-43
2022/08/25 12:13:43;;;;;;;3.95;1.20;;;30.20;53.10;;;;;;5044667;28;20057;-40
2022/08/25 12:16:33;;;;;;;2.35;1.05;;;30.20;54.00;;;;;;5044607;28;20049;-40
2022/08/25 12:19:33;;;;;;;4.65;1.80;;;30.20;53.70;;;;;;5044550;28;20530;-42
2022/08/25 12:22:01;;;;;;;6.57;1.45;;;30.20;54.00;;;;;;5044751;28;20095;-42
2022/08/25 12:24:42;;;;;;;3.67;1.20;;;30.20;54.10;;;;;;5044674;28;20499;-41
2022/08/25 12:27:29;;;;;;;2.95;1.10;;;30.20;53.90;;;;;;5044805;28;20049;-41
2022/08/25 12:30:18;;;;;;;4.40;1.00;;;30.10;53.00;;;;;;5044595;28;20045;-40
2022/08/25 12:33:10;;;;;;;5.72;1.30;;;30.10;52.20;;;;;;5044375;28;20080;-41
2022/08/25 12:35:36;;;;;;;3.75;1.38;;;30.00;53.50;;;;;;5044913;28;20090;-41
2022/08/25 12:38:14;;;;;;;5.32;1.33;;;30.00;53.60;;;;;;5044381;28;20041;-41
2022/08/25 12:40:43;;;;;;;4.35;1.67;;;30.00;53.40;;;;;;5044544;28;20365;-41
2022/08/25 12:43:14;;;;;;;4.07;1.27;;;30.00;53.50;;;;;;5044540;28;20045;-42
2022/08/25 12:45:48;;;;;;;4.03;1.25;;;30.00;52.90;;;;;;5044480;28;20041;-42
2022/08/25 12:48:26;;;;;;;4.25;1.23;;;30.00;52.80;;;;;;5044681;28;20555;-41
2022/08/25 12:51:01;;;;;;;2.85;1.35;;;30.00;51.80;;;;;;5045329;28;20083;-41
2022/08/25 12:53:44;;;;;;;2.92;1.15;;;29.90;54.10;;;;;;5044357;28;20053;-41
2022/08/25 12:56:26;;;;;;;2.85;1.10;;;29.90;54.60;;;;;;5044056;28;20055;-44
2022/08/25 12:59:20;;;;;;;5.95;1.50;;;29.90;53.30;;;;;;5044684;28;20052;-41
2022/08/25 13:02:06;;;;;;;4.10;1.20;;;29.90;53.60;;;;;;5044707;28;20045;-41
2022/08/25 13:04:57;;;;;;;4.35;1.50;;;29.90;52.90;;;;;;5040058;28;20076;-41
2022/08/25 13:07:44;;;;;;;5.63;1.23;;;29.90;53.40;;;;;;5048226;28;20047;-40
2022/08/25 13:10:13;;;;;;;3.90;1.35;;;29.90;54.70;;;;;;5047967;28;20057;-43
2022/08/25 13:13:03;;;;;;;4.15;1.58;;;29.90;55.20;;;;;;5048818;28;20053;-42
2022/08/25 13:15:45;;;;;;;5.45;1.52;;;29.90;55.20;;;;;;5048689;28;20109;-41
2022/08/25 13:18:30;;;;;;;5.53;1.67;;;29.90;54.10;;;;;;5048603;28;20036;-40